sensor_id;sensor_type;location;lat;lon;timestamp;pressure;altitude;pressure_sealevel;temperature;humidity
70027;BME280;57506;50.092;15.804;2024-02-14T00:01:16;99688.84;;;-2.06;100.00
70027;BME280;57506;50.092;15.804;2024-02-14T00:03:43;99700.16;;;-2.04;100.00
70027;BME280;57506;50.092;15.804;2024-02-14T00:06:09;99696.25;;;-2.11;100.00
70027;BME280;57506;50.092;15.804;2024-02-14T00:08:37;99684.78;;;-2.24;100.00
70027;BME280;57506;50.092;15.804;2024-02-14T00:11:03;99708.06;;;-2.17;100.00
70027;BME280;57506;50.092;15.804;2024-02-14T00:13:29;99696.84;;;-2.20;100.00
70027;BME280;57506;50.092;15.804;2024-02-14T00:15:54;99629.47;;;-2.65;100.00
70027;BME280;57506;50.092;15.804;2024-02-14T00:18:22;99694.00;;;-2.17;100.00
70027;BME280;57506;50.092;15.804;2024-02-14T00:20:48;99689.44;;;-2.28;100.00
70027;BME280;57506;50.092;15.804;2024-02-14T00:23:14;99693.88;;;-2.28;100.00
70027;BME280;57506;50.092;15.804;2024-02-14T00:25:39;99707.81;;;-2.26;100.00
70027;BME280;57506;50.092;15.804;2024-02-14T00:28:05;99713.22;;;-2.28;100.00
70027;BME280;57506;50.092;15.804;2024-02-14T00:30:31;99703.59;;;-2.29;100.00
70027;BME280;57506;50.092;15.804;2024-02-14T00:32:57;99687.91;;;-2.44;100.00
70027;BME280;57506;50.092;15.804;2024-02-14T00:35:22;99686.69;;;-2.53;100.00
70027;BME280;57506;50.092;15.804;2024-02-14T00:37:48;99680.81;;;-2.71;100.00
70027;BME280;57506;50.092;15.804;2024-02-14T00:40:14;99717.31;;;-2.51;100.00
70027;BME280;57506;50.092;15.804;2024-02-14T00:42:40;99721.00;;;-2.53;100.00
70027;BME280;57506;50.092;15.804;2024-02-14T00:45:06;99727.88;;;-2.51;100.00
70027;BME280;57506;50.092;15.804;2024-02-14T00:47:35;99724.09;;;-2.47;100.00
70027;BME280;57506;50.092;15.804;2024-02-14T00:50:02;99729.91;;;-2.41;100.00
70027;BME280;57506;50.092;15.804;2024-02-14T00:52:28;99719.59;;;-2.44;100.00
70027;BME280;57506;50.092;15.804;2024-02-14T00:54:54;99726.94;;;-2.23;100.00
70027;BME280;57506;50.092;15.804;2024-02-14T00:57:20;99733.81;;;-2.20;100.00
70027;BME280;57506;50.092;15.804;2024-02-14T00:59:45;99736.13;;;-2.28;100.00
70027;BME280;57506;50.092;15.804;2024-02-14T01:02:11;99721.63;;;-2.35;100.00
70027;BME280;57506;50.092;15.804;2024-02-14T01:04:37;99733.31;;;-2.39;100.00
70027;BME280;57506;50.092;15.804;2024-02-14T01:07:03;99719.41;;;-2.56;100.00
70027;BME280;57506;50.092;15.804;2024-02-14T01:09:29;99721.28;;;-2.58;100.00
70027;BME280;57506;50.092;15.804;2024-02-14T01:11:55;99727.81;;;-2.63;100.00
70027;BME280;57506;50.092;15.804;2024-02-14T01:14:21;99711.53;;;-2.70;100.00
70027;BME280;57506;50.092;15.804;2024-02-14T01:16:47;99704.22;;;-2.79;100.00
70027;BME280;57506;50.092;15.804;2024-02-14T01:19:13;99720.28;;;-2.69;100.00
70027;BME280;57506;50.092;15.804;2024-02-14T01:21:39;99743.66;;;-2.63;100.00
70027;BME280;57506;50.092;15.804;2024-02-14T01:24:05;99734.03;;;-2.64;100.00
70027;BME280;57506;50.092;15.804;2024-02-14T01:26:31;99700.81;;;-2.81;100.00
70027;BME280;57506;50.092;15.804;2024-02-14T01:28:57;99708.16;;;-2.86;100.00
70027;BME280;57506;50.092;15.804;2024-02-14T01:31:26;99735.28;;;-2.70;100.00
70027;BME280;57506;50.092;15.804;2024-02-14T01:33:52;99695.38;;;-2.92;100.00
70027;BME280;57506;50.092;15.804;2024-02-14T01:36:18;99709.03;;;-2.86;100.00
70027;BME280;57506;50.092;15.804;2024-02-14T01:38:43;99728.91;;;-2.80;100.00
70027;BME280;57506;50.092;15.804;2024-02-14T01:41:10;99724.00;;;-2.86;100.00
70027;BME280;57506;50.092;15.804;2024-02-14T01:43:36;99725.69;;;-2.85;100.00
70027;BME280;57506;50.092;15.804;2024-02-14T01:46:05;99736.25;;;-2.85;100.00
70027;BME280;57506;50.092;15.804;2024-02-14T01:48:31;99737.00;;;-2.83;100.00
70027;BME280;57506;50.092;15.804;2024-02-14T01:50:57;99730.78;;;-2.82;100.00
70027;BME280;57506;50.092;15.804;2024-02-14T01:53:24;99705.38;;;-2.97;100.00
70027;BME280;57506;50.092;15.804;2024-02-14T01:55:51;99713.28;;;-2.97;100.00
70027;BME280;57506;50.092;15.804;2024-02-14T01:58:17;99708.19;;;-3.00;100.00
70027;BME280;57506;50.092;15.804;2024-02-14T02:00:43;99730.31;;;-2.89;100.00
70027;BME280;57506;50.092;15.804;2024-02-14T02:03:09;99722.19;;;-2.86;100.00
70027;BME280;57506;50.092;15.804;2024-02-14T02:05:36;99724.19;;;-2.89;100.00
70027;BME280;57506;50.092;15.804;2024-02-14T02:08:01;99692.47;;;-3.02;100.00
70027;BME280;57506;50.092;15.804;2024-02-14T02:10:27;99721.34;;;-2.86;100.00
70027;BME280;57506;50.092;15.804;2024-02-14T02:13:00;99723.97;;;-2.72;100.00
70027;BME280;57506;50.092;15.804;2024-02-14T02:15:26;99704.47;;;-2.69;100.00
70027;BME280;57506;50.092;15.804;2024-02-14T02:17:53;99715.28;;;-2.60;100.00
70027;BME280;57506;50.092;15.804;2024-02-14T02:20:19;99731.59;;;-2.40;100.00
70027;BME280;57506;50.092;15.804;2024-02-14T02:22:48;99726.13;;;-2.37;100.00
70027;BME280;57506;50.092;15.804;2024-02-14T02:25:14;99722.16;;;-2.30;100.00
70027;BME280;57506;50.092;15.804;2024-02-14T02:27:40;99725.34;;;-2.25;100.00
70027;BME280;57506;50.092;15.804;2024-02-14T02:30:06;99713.53;;;-2.20;100.00
70027;BME280;57506;50.092;15.804;2024-02-14T02:32:32;99724.88;;;-2.05;100.00
70027;BME280;57506;50.092;15.804;2024-02-14T02:34:58;99704.78;;;-2.07;100.00
70027;BME280;57506;50.092;15.804;2024-02-14T02:37:25;99722.91;;;-1.89;100.00
70027;BME280;57506;50.092;15.804;2024-02-14T02:39:51;99712.25;;;-1.87;100.00
70027;BME280;57506;50.092;15.804;2024-02-14T02:42:17;99720.63;;;-1.81;100.00
70027;BME280;57506;50.092;15.804;2024-02-14T02:44:46;99712.91;;;-1.84;100.00
70027;BME280;57506;50.092;15.804;2024-02-14T02:47:13;99713.00;;;-1.72;100.00
70027;BME280;57506;50.092;15.804;2024-02-14T02:49:43;99712.25;;;-1.74;100.00
70027;BME280;57506;50.092;15.804;2024-02-14T02:52:12;99692.81;;;-1.73;100.00
70027;BME280;57506;50.092;15.804;2024-02-14T02:54:38;99712.91;;;-1.58;100.00
70027;BME280;57506;50.092;15.804;2024-02-14T02:57:09;99708.38;;;-1.44;100.00
70027;BME280;57506;50.092;15.804;2024-02-14T02:59:35;99706.28;;;-1.38;100.00
70027;BME280;57506;50.092;15.804;2024-02-14T03:02:02;99681.19;;;-1.58;100.00
70027;BME280;57506;50.092;15.804;2024-02-14T03:04:28;99702.69;;;-1.50;100.00
70027;BME280;57506;50.092;15.804;2024-02-14T03:06:56;99704.78;;;-1.55;100.00
70027;BME280;57506;50.092;15.804;2024-02-14T03:09:22;99698.66;;;-1.56;100.00
70027;BME280;57506;50.092;15.804;2024-02-14T03:11:47;99671.06;;;-1.64;100.00
70027;BME280;57506;50.092;15.804;2024-02-14T03:14:13;99709.47;;;-1.46;100.00
70027;BME280;57506;50.092;15.804;2024-02-14T03:16:39;99707.31;;;-1.41;100.00
70027;BME280;57506;50.092;15.804;2024-02-14T03:19:05;99695.69;;;-1.64;100.00
70027;BME280;57506;50.092;15.804;2024-02-14T03:21:31;99700.75;;;-1.73;100.00
70027;BME280;57506;50.092;15.804;2024-02-14T03:24:04;99723.78;;;-1.76;100.00
70027;BME280;57506;50.092;15.804;2024-02-14T03:26:36;99712.41;;;-1.63;100.00
70027;BME280;57506;50.092;15.804;2024-02-14T03:29:03;99711.31;;;-1.61;100.00
70027;BME280;57506;50.092;15.804;2024-02-14T03:31:32;99723.47;;;-1.58;100.00
70027;BME280;57506;50.092;15.804;2024-02-14T03:33:57;99696.22;;;-1.71;100.00
70027;BME280;57506;50.092;15.804;2024-02-14T03:36:23;99675.81;;;-1.82;100.00
70027;BME280;57506;50.092;15.804;2024-02-14T03:38:49;99712.81;;;-1.57;100.00
70027;BME280;57506;50.092;15.804;2024-02-14T03:41:15;99704.13;;;-1.71;100.00
70027;BME280;57506;50.092;15.804;2024-02-14T03:43:40;99681.38;;;-1.99;100.00
70027;BME280;57506;50.092;15.804;2024-02-14T03:46:06;99710.66;;;-1.90;100.00
70027;BME280;57506;50.092;15.804;2024-02-14T03:48:32;99720.78;;;-1.96;100.00
70027;BME280;57506;50.092;15.804;2024-02-14T03:50:57;99722.78;;;-2.00;100.00
70027;BME280;57506;50.092;15.804;2024-02-14T03:53:23;99706.41;;;-2.05;100.00
70027;BME280;57506;50.092;15.804;2024-02-14T03:55:49;99713.38;;;-2.04;100.00
70027;BME280;57506;50.092;15.804;2024-02-14T03:58:15;99728.47;;;-2.06;100.00
70027;BME280;57506;50.092;15.804;2024-02-14T04:00:49;99728.38;;;-2.04;100.00
70027;BME280;57506;50.092;15.804;2024-02-14T04:03:16;99719.03;;;-2.10;100.00
70027;BME280;57506;50.092;15.804;2024-02-14T04:05:42;99724.38;;;-1.97;100.00
70027;BME280;57506;50.092;15.804;2024-02-14T04:08:07;99726.59;;;-1.91;100.00
70027;BME280;57506;50.092;15.804;2024-02-14T04:10:36;99718.06;;;-1.95;100.00
70027;BME280;57506;50.092;15.804;2024-02-14T04:13:03;99698.50;;;-1.92;100.00
70027;BME280;57506;50.092;15.804;2024-02-14T04:15:32;99727.81;;;-1.70;100.00
70027;BME280;57506;50.092;15.804;2024-02-14T04:17:58;99709.09;;;-1.80;100.00
70027;BME280;57506;50.092;15.804;2024-02-14T04:20:27;99732.69;;;-1.64;100.00
70027;BME280;57506;50.092;15.804;2024-02-14T04:22:53;99717.25;;;-1.57;100.00
70027;BME280;57506;50.092;15.804;2024-02-14T04:25:18;99737.78;;;-1.35;100.00
70027;BME280;57506;50.092;15.804;2024-02-14T04:27:44;99721.81;;;-1.34;100.00
70027;BME280;57506;50.092;15.804;2024-02-14T04:30:10;99716.09;;;-1.28;100.00
70027;BME280;57506;50.092;15.804;2024-02-14T04:32:36;99722.66;;;-1.21;100.00
70027;BME280;57506;50.092;15.804;2024-02-14T04:35:01;99725.84;;;-1.16;100.00
70027;BME280;57506;50.092;15.804;2024-02-14T04:37:27;99735.66;;;-1.18;100.00
70027;BME280;57506;50.092;15.804;2024-02-14T04:39:53;99715.03;;;-1.25;100.00
70027;BME280;57506;50.092;15.804;2024-02-14T04:42:18;99694.00;;;-1.39;100.00
70027;BME280;57506;50.092;15.804;2024-02-14T04:44:44;99720.97;;;-1.22;100.00
70027;BME280;57506;50.092;15.804;2024-02-14T04:47:10;99721.50;;;-1.17;100.00
70027;BME280;57506;50.092;15.804;2024-02-14T04:49:36;99737.25;;;-1.02;100.00
70027;BME280;57506;50.092;15.804;2024-02-14T04:52:02;99702.34;;;-1.20;100.00
70027;BME280;57506;50.092;15.804;2024-02-14T04:54:28;99718.41;;;-1.11;100.00
70027;BME280;57506;50.092;15.804;2024-02-14T04:56:54;99713.47;;;-1.15;100.00
70027;BME280;57506;50.092;15.804;2024-02-14T04:59:20;99734.59;;;-1.02;100.00
70027;BME280;57506;50.092;15.804;2024-02-14T05:01:45;99730.38;;;-1.05;100.00
70027;BME280;57506;50.092;15.804;2024-02-14T05:04:11;99722.75;;;-1.10;100.00
70027;BME280;57506;50.092;15.804;2024-02-14T05:06:38;99718.13;;;-1.19;100.00
70027;BME280;57506;50.092;15.804;2024-02-14T05:09:04;99721.06;;;-1.11;100.00
70027;BME280;57506;50.092;15.804;2024-02-14T05:11:30;99713.66;;;-1.06;100.00
70027;BME280;57506;50.092;15.804;2024-02-14T05:13:56;99697.69;;;-1.04;100.00
70027;BME280;57506;50.092;15.804;2024-02-14T05:16:21;99707.38;;;-0.92;100.00
70027;BME280;57506;50.092;15.804;2024-02-14T05:18:47;99711.16;;;-0.71;100.00
70027;BME280;57506;50.092;15.804;2024-02-14T05:21:13;99690.72;;;-0.68;100.00
70027;BME280;57506;50.092;15.804;2024-02-14T05:23:39;99665.13;;;-0.81;100.00
70027;BME280;57506;50.092;15.804;2024-02-14T05:26:04;99704.66;;;-0.54;100.00
70027;BME280;57506;50.092;15.804;2024-02-14T05:28:30;99690.88;;;-0.59;100.00
70027;BME280;57506;50.092;15.804;2024-02-14T05:30:57;99715.22;;;-0.54;100.00
70027;BME280;57506;50.092;15.804;2024-02-14T05:33:23;99707.41;;;-0.55;100.00
70027;BME280;57506;50.092;15.804;2024-02-14T05:35:49;99707.81;;;-0.61;100.00
70027;BME280;57506;50.092;15.804;2024-02-14T05:38:15;99706.25;;;-0.64;100.00
70027;BME280;57506;50.092;15.804;2024-02-14T05:40:41;99678.59;;;-0.84;100.00
70027;BME280;57506;50.092;15.804;2024-02-14T05:43:09;99695.81;;;-0.78;100.00
70027;BME280;57506;50.092;15.804;2024-02-14T05:45:35;99696.97;;;-0.69;100.00
70027;BME280;57506;50.092;15.804;2024-02-14T05:48:01;99698.09;;;-0.61;100.00
70027;BME280;57506;50.092;15.804;2024-02-14T05:50:27;99701.78;;;-0.51;100.00
70027;BME280;57506;50.092;15.804;2024-02-14T05:52:53;99715.41;;;-0.44;100.00
70027;BME280;57506;50.092;15.804;2024-02-14T05:55:18;99703.16;;;-0.58;100.00
70027;BME280;57506;50.092;15.804;2024-02-14T05:57:44;99711.22;;;-0.59;100.00
70027;BME280;57506;50.092;15.804;2024-02-14T06:00:10;99741.69;;;-0.54;100.00
70027;BME280;57506;50.092;15.804;2024-02-14T06:02:38;99688.59;;;-0.76;100.00
70027;BME280;57506;50.092;15.804;2024-02-14T06:05:06;99715.88;;;-0.63;100.00
70027;BME280;57506;50.092;15.804;2024-02-14T06:07:37;99708.47;;;-0.58;100.00
70027;BME280;57506;50.092;15.804;2024-02-14T06:10:03;99725.66;;;-0.40;100.00
70027;BME280;57506;50.092;15.804;2024-02-14T06:12:28;99697.22;;;-0.49;100.00
70027;BME280;57506;50.092;15.804;2024-02-14T06:14:55;99713.16;;;-0.38;100.00
70027;BME280;57506;50.092;15.804;2024-02-14T06:17:21;99716.81;;;-0.27;100.00
70027;BME280;57506;50.092;15.804;2024-02-14T06:19:46;99722.75;;;-0.24;100.00
70027;BME280;57506;50.092;15.804;2024-02-14T06:22:12;99732.28;;;-0.21;100.00
70027;BME280;57506;50.092;15.804;2024-02-14T06:24:37;99720.59;;;-0.19;100.00
70027;BME280;57506;50.092;15.804;2024-02-14T06:27:03;99737.91;;;-0.02;100.00
70027;BME280;57506;50.092;15.804;2024-02-14T06:29:29;99730.50;;;-0.10;100.00
70027;BME280;57506;50.092;15.804;2024-02-14T06:31:54;99731.13;;;-0.06;100.00
70027;BME280;57506;50.092;15.804;2024-02-14T06:34:20;99753.84;;;0.09;100.00
70027;BME280;57506;50.092;15.804;2024-02-14T06:36:48;99738.28;;;0.05;100.00
70027;BME280;57506;50.092;15.804;2024-02-14T06:39:14;99730.09;;;0.08;100.00
70027;BME280;57506;50.092;15.804;2024-02-14T06:41:40;99727.50;;;0.19;100.00
70027;BME280;57506;50.092;15.804;2024-02-14T06:44:06;99743.56;;;0.28;100.00
70027;BME280;57506;50.092;15.804;2024-02-14T06:46:31;99726.69;;;0.29;100.00
70027;BME280;57506;50.092;15.804;2024-02-14T06:48:57;99735.13;;;0.34;100.00
70027;BME280;57506;50.092;15.804;2024-02-14T06:51:23;99755.66;;;0.44;100.00
70027;BME280;57506;50.092;15.804;2024-02-14T06:53:50;99743.38;;;0.43;100.00
70027;BME280;57506;50.092;15.804;2024-02-14T06:56:16;99743.88;;;0.48;100.00
70027;BME280;57506;50.092;15.804;2024-02-14T06:58:41;99735.66;;;0.51;100.00
70027;BME280;57506;50.092;15.804;2024-02-14T07:01:07;99725.03;;;0.51;100.00
70027;BME280;57506;50.092;15.804;2024-02-14T07:03:33;99735.69;;;0.62;100.00
70027;BME280;57506;50.092;15.804;2024-02-14T07:05:59;99743.66;;;0.73;100.00
70027;BME280;57506;50.092;15.804;2024-02-14T07:08:24;99742.72;;;0.74;100.00
70027;BME280;57506;50.092;15.804;2024-02-14T07:10:53;99740.78;;;0.76;100.00
70027;BME280;57506;50.092;15.804;2024-02-14T07:13:19;99741.00;;;0.73;100.00
70027;BME280;57506;50.092;15.804;2024-02-14T07:15:44;99720.88;;;0.59;100.00
70027;BME280;57506;50.092;15.804;2024-02-14T07:18:10;99740.88;;;0.63;100.00
70027;BME280;57506;50.092;15.804;2024-02-14T07:20:36;99736.88;;;0.58;100.00
70027;BME280;57506;50.092;15.804;2024-02-14T07:23:02;99714.44;;;0.51;100.00
70027;BME280;57506;50.092;15.804;2024-02-14T07:25:28;99742.22;;;0.69;100.00
70027;BME280;57506;50.092;15.804;2024-02-14T07:27:53;99728.59;;;0.62;100.00
70027;BME280;57506;50.092;15.804;2024-02-14T07:30:19;99721.22;;;0.55;100.00
70027;BME280;57506;50.092;15.804;2024-02-14T07:32:45;99731.59;;;0.69;100.00
70027;BME280;57506;50.092;15.804;2024-02-14T07:35:11;99650.75;;;0.17;100.00
70027;BME280;57506;50.092;15.804;2024-02-14T07:37:38;99713.97;;;0.57;100.00
70027;BME280;57506;50.092;15.804;2024-02-14T07:40:04;99716.91;;;0.65;100.00
70027;BME280;57506;50.092;15.804;2024-02-14T07:42:31;99735.38;;;0.78;100.00
70027;BME280;57506;50.092;15.804;2024-02-14T07:44:57;99748.28;;;0.93;100.00
70027;BME280;57506;50.092;15.804;2024-02-14T07:47:22;99732.25;;;0.95;100.00
70027;BME280;57506;50.092;15.804;2024-02-14T07:49:48;99734.44;;;1.12;100.00
70027;BME280;57506;50.092;15.804;2024-02-14T07:52:14;99744.56;;;1.29;100.00
70027;BME280;57506;50.092;15.804;2024-02-14T07:54:39;99742.97;;;1.38;100.00
70027;BME280;57506;50.092;15.804;2024-02-14T07:57:05;99736.44;;;1.53;100.00
70027;BME280;57506;50.092;15.804;2024-02-14T07:59:31;99737.25;;;1.76;100.00
70027;BME280;57506;50.092;15.804;2024-02-14T08:01:56;99733.19;;;1.93;100.00
70027;BME280;57506;50.092;15.804;2024-02-14T08:04:22;99744.81;;;2.24;100.00
70027;BME280;57506;50.092;15.804;2024-02-14T08:06:48;99751.13;;;2.43;100.00
70027;BME280;57506;50.092;15.804;2024-02-14T08:09:16;99737.63;;;2.56;100.00
70027;BME280;57506;50.092;15.804;2024-02-14T08:11:42;99744.94;;;2.64;100.00
70027;BME280;57506;50.092;15.804;2024-02-14T08:14:07;99764.50;;;2.74;100.00
70027;BME280;57506;50.092;15.804;2024-02-14T08:16:33;99747.72;;;2.62;100.00
70027;BME280;57506;50.092;15.804;2024-02-14T08:18:59;99760.31;;;2.81;100.00
70027;BME280;57506;50.092;15.804;2024-02-14T08:21:27;99759.44;;;2.92;100.00
70027;BME280;57506;50.092;15.804;2024-02-14T08:23:54;99753.63;;;3.07;100.00
70027;BME280;57506;50.092;15.804;2024-02-14T08:26:23;99757.88;;;3.20;100.00
70027;BME280;57506;50.092;15.804;2024-02-14T08:28:49;99751.81;;;3.48;100.00
70027;BME280;57506;50.092;15.804;2024-02-14T08:31:15;99754.94;;;3.53;100.00
70027;BME280;57506;50.092;15.804;2024-02-14T08:33:41;99763.78;;;3.63;100.00
70027;BME280;57506;50.092;15.804;2024-02-14T08:36:07;99771.97;;;3.71;100.00
70027;BME280;57506;50.092;15.804;2024-02-14T08:38:35;99757.34;;;3.75;100.00
70027;BME280;57506;50.092;15.804;2024-02-14T08:41:02;99761.88;;;3.84;100.00
70027;BME280;57506;50.092;15.804;2024-02-14T08:43:28;99756.69;;;3.83;100.00
70027;BME280;57506;50.092;15.804;2024-02-14T08:45:55;99757.53;;;3.93;100.00
70027;BME280;57506;50.092;15.804;2024-02-14T08:48:21;99743.53;;;4.01;100.00
70027;BME280;57506;50.092;15.804;2024-02-14T08:50:46;99752.25;;;4.03;100.00
70027;BME280;57506;50.092;15.804;2024-02-14T08:53:13;99756.44;;;4.25;100.00
70027;BME280;57506;50.092;15.804;2024-02-14T08:55:39;99758.84;;;4.28;100.00
70027;BME280;57506;50.092;15.804;2024-02-14T08:58:06;99731.75;;;4.13;100.00
70027;BME280;57506;50.092;15.804;2024-02-14T09:00:31;99747.47;;;4.45;100.00
70027;BME280;57506;50.092;15.804;2024-02-14T09:03:00;99758.81;;;4.76;100.00
70027;BME280;57506;50.092;15.804;2024-02-14T09:05:26;99762.88;;;4.80;100.00
70027;BME280;57506;50.092;15.804;2024-02-14T09:07:53;99767.91;;;5.02;100.00
70027;BME280;57506;50.092;15.804;2024-02-14T09:10:19;99754.78;;;5.18;100.00
70027;BME280;57506;50.092;15.804;2024-02-14T09:12:44;99758.53;;;5.35;100.00
70027;BME280;57506;50.092;15.804;2024-02-14T09:15:10;99746.00;;;5.36;100.00
70027;BME280;57506;50.092;15.804;2024-02-14T09:17:37;99750.88;;;5.40;100.00
70027;BME280;57506;50.092;15.804;2024-02-14T09:20:06;99754.84;;;5.36;100.00
70027;BME280;57506;50.092;15.804;2024-02-14T09:22:35;99747.13;;;5.33;100.00
70027;BME280;57506;50.092;15.804;2024-02-14T09:25:01;99752.34;;;5.35;100.00
70027;BME280;57506;50.092;15.804;2024-02-14T09:27:32;99744.47;;;5.23;100.00
70027;BME280;57506;50.092;15.804;2024-02-14T09:29:58;99745.09;;;5.08;100.00
70027;BME280;57506;50.092;15.804;2024-02-14T09:32:24;99758.31;;;5.19;100.00
70027;BME280;57506;50.092;15.804;2024-02-14T09:34:50;99738.06;;;5.07;100.00
70027;BME280;57506;50.092;15.804;2024-02-14T09:37:16;99756.47;;;5.19;100.00
70027;BME280;57506;50.092;15.804;2024-02-14T09:39:41;99747.63;;;5.09;100.00
70027;BME280;57506;50.092;15.804;2024-02-14T09:42:13;99746.22;;;5.15;100.00
70027;BME280;57506;50.092;15.804;2024-02-14T09:44:41;99757.69;;;5.25;100.00
70027;BME280;57506;50.092;15.804;2024-02-14T09:47:09;99746.72;;;5.28;100.00
70027;BME280;57506;50.092;15.804;2024-02-14T09:49:35;99743.34;;;5.36;100.00
70027;BME280;57506;50.092;15.804;2024-02-14T09:52:02;99761.34;;;5.61;100.00
70027;BME280;57506;50.092;15.804;2024-02-14T09:54:29;99729.06;;;5.72;100.00
70027;BME280;57506;50.092;15.804;2024-02-14T09:56:57;99746.59;;;6.12;100.00
70027;BME280;57506;50.092;15.804;2024-02-14T09:59:23;99744.13;;;6.36;100.00
70027;BME280;57506;50.092;15.804;2024-02-14T10:01:49;99735.72;;;6.49;100.00
70027;BME280;57506;50.092;15.804;2024-02-14T10:04:16;99737.91;;;6.71;100.00
70027;BME280;57506;50.092;15.804;2024-02-14T10:06:47;99733.47;;;6.80;100.00
70027;BME280;57506;50.092;15.804;2024-02-14T10:09:19;99735.75;;;7.00;100.00
70027;BME280;57506;50.092;15.804;2024-02-14T10:11:45;99723.19;;;7.01;100.00
70027;BME280;57506;50.092;15.804;2024-02-14T10:14:11;99735.66;;;7.10;100.00
70027;BME280;57506;50.092;15.804;2024-02-14T10:16:38;99722.56;;;7.07;99.18
70027;BME280;57506;50.092;15.804;2024-02-14T10:19:04;99727.25;;;7.05;100.00
70027;BME280;57506;50.092;15.804;2024-02-14T10:21:29;99702.72;;;6.92;100.00
70027;BME280;57506;50.092;15.804;2024-02-14T10:24:01;99732.97;;;7.10;99.83
70027;BME280;57506;50.092;15.804;2024-02-14T10:26:30;99705.78;;;6.97;99.66
70027;BME280;57506;50.092;15.804;2024-02-14T10:28:57;99726.56;;;7.29;98.57
70027;BME280;57506;50.092;15.804;2024-02-14T10:31:26;99716.84;;;7.36;96.46
70027;BME280;57506;50.092;15.804;2024-02-14T10:33:55;99724.19;;;7.60;97.76
70027;BME280;57506;50.092;15.804;2024-02-14T10:36:22;99715.00;;;7.70;96.20
70027;BME280;57506;50.092;15.804;2024-02-14T10:38:50;99717.56;;;7.88;95.01
70027;BME280;57506;50.092;15.804;2024-02-14T10:41:16;99717.91;;;8.01;95.38
70027;BME280;57506;50.092;15.804;2024-02-14T10:43:42;99710.91;;;8.08;94.55
70027;BME280;57506;50.092;15.804;2024-02-14T10:46:19;99695.44;;;7.94;93.06
70027;BME280;57506;50.092;15.804;2024-02-14T10:48:46;99709.38;;;8.06;90.81
70027;BME280;57506;50.092;15.804;2024-02-14T10:51:15;99701.13;;;7.99;94.06
70027;BME280;57506;50.092;15.804;2024-02-14T10:53:41;99680.16;;;7.79;92.73
70027;BME280;57506;50.092;15.804;2024-02-14T10:56:13;99691.38;;;7.82;95.59
70027;BME280;57506;50.092;15.804;2024-02-14T10:58:45;99690.72;;;7.88;94.81
70027;BME280;57506;50.092;15.804;2024-02-14T11:01:13;99693.09;;;7.91;94.51
70027;BME280;57506;50.092;15.804;2024-02-14T11:03:41;99685.03;;;7.91;93.57
70027;BME280;57506;50.092;15.804;2024-02-14T11:06:06;99673.09;;;7.86;92.85
70027;BME280;57506;50.092;15.804;2024-02-14T11:08:32;99656.81;;;7.71;91.58
70027;BME280;57506;50.092;15.804;2024-02-14T11:10:59;99676.63;;;7.86;94.32
70027;BME280;57506;50.092;15.804;2024-02-14T11:13:28;99680.31;;;7.85;94.23
70027;BME280;57506;50.092;15.804;2024-02-14T11:15:57;99664.06;;;7.79;94.48
70027;BME280;57506;50.092;15.804;2024-02-14T11:18:26;99655.16;;;7.86;93.77
70027;BME280;57506;50.092;15.804;2024-02-14T11:20:52;99664.91;;;7.95;93.33
70027;BME280;57506;50.092;15.804;2024-02-14T11:23:22;99655.50;;;7.99;92.80
70027;BME280;57506;50.092;15.804;2024-02-14T11:25:47;99668.28;;;8.14;93.68
70027;BME280;57506;50.092;15.804;2024-02-14T11:28:19;99664.59;;;8.23;92.20
70027;BME280;57506;50.092;15.804;2024-02-14T11:30:45;99658.25;;;8.32;91.78
70027;BME280;57506;50.092;15.804;2024-02-14T11:33:21;99664.63;;;8.47;91.56
70027;BME280;57506;50.092;15.804;2024-02-14T11:35:48;99659.06;;;8.49;90.92
70027;BME280;57506;50.092;15.804;2024-02-14T11:38:17;99602.19;;;8.21;90.06
70027;BME280;57506;50.092;15.804;2024-02-14T11:40:43;99596.31;;;8.41;91.66
70027;BME280;57506;50.092;15.804;2024-02-14T11:43:16;99630.84;;;8.69;92.08
70027;BME280;57506;50.092;15.804;2024-02-14T11:45:45;99633.63;;;9.00;89.40
70027;BME280;57506;50.092;15.804;2024-02-14T11:48:15;99635.09;;;9.10;93.11
70027;BME280;57506;50.092;15.804;2024-02-14T11:50:43;99600.34;;;9.09;88.92
70027;BME280;57506;50.092;15.804;2024-02-14T11:53:10;99624.59;;;9.32;88.39
70027;BME280;57506;50.092;15.804;2024-02-14T11:55:37;99628.53;;;9.52;88.50
70027;BME280;57506;50.092;15.804;2024-02-14T11:58:07;99637.19;;;9.70;86.82
70027;BME280;57506;50.092;15.804;2024-02-14T12:00:33;99626.97;;;9.89;84.29
70027;BME280;57506;50.092;15.804;2024-02-14T12:03:01;99613.75;;;10.02;85.32
70027;BME280;57506;50.092;15.804;2024-02-14T12:05:27;99619.88;;;10.19;85.08
70027;BME280;57506;50.092;15.804;2024-02-14T12:07:53;99626.78;;;10.13;83.73
70027;BME280;57506;50.092;15.804;2024-02-14T12:10:19;99622.94;;;10.07;84.42
70027;BME280;57506;50.092;15.804;2024-02-14T12:12:47;99623.41;;;10.11;86.82
70027;BME280;57506;50.092;15.804;2024-02-14T12:15:13;99623.25;;;10.12;85.55
70027;BME280;57506;50.092;15.804;2024-02-14T12:17:41;99622.72;;;10.17;83.06
70027;BME280;57506;50.092;15.804;2024-02-14T12:20:10;99609.78;;;10.35;81.55
70027;BME280;57506;50.092;15.804;2024-02-14T12:22:39;99616.06;;;10.65;82.76
70027;BME280;57506;50.092;15.804;2024-02-14T12:25:07;99617.81;;;10.73;79.98
70027;BME280;57506;50.092;15.804;2024-02-14T12:27:36;99618.97;;;10.93;79.02
70027;BME280;57506;50.092;15.804;2024-02-14T12:30:11;99597.50;;;11.00;76.11
70027;BME280;57506;50.092;15.804;2024-02-14T12:32:37;99580.84;;;11.11;78.13
70027;BME280;57506;50.092;15.804;2024-02-14T12:35:03;99616.22;;;11.37;76.81
70027;BME280;57506;50.092;15.804;2024-02-14T12:37:30;99592.13;;;11.50;76.95
70027;BME280;57506;50.092;15.804;2024-02-14T12:39:56;99593.06;;;11.43;72.99
70027;BME280;57506;50.092;15.804;2024-02-14T12:42:22;99605.81;;;11.49;74.81